Portada
METAR-TAF:

METAR-TAF

Aeroports :

Fort McMurray, Alberta, Canadà

latitud: 56-39N, longitud: 111-13W, altitud: 369 m

Observació

L'informe es va fer fa 1 hora i 23 minuts, a les 23:00 UTC
Vent 18 kt del Nord/Nord-Oest amb ràfegues de 26 kt
Temperatura 13°C
Humitat 38%
Pressió 1006 hPa
Visibilitat: 14.5 km
Escasses núvols a una alçada de 7600 ft

METAR: CYMM 162300Z AUTO 34018G26KT 9SM FEW076 13/M01 A2970 RMK SLP072 DENSITY ALT 1500FT

Hora: 18:23 (00:23 UTC)

Pronòstic

L'informe es va fer fa 5 hores i 43 minuts, a les 18:40 UTC
Pronòstic vàlid del 16 a les 19 UTC al 17 a les 07 UTC
Vent 15 kt del Nord/Nord-Oest amb ràfegues de 25 kt
Visibilitat: 10 km
Cel ennuvolat a una alçada de 6000 ft
Evolucionant progressivament
l' 17 a les 01 UTC al 17 a les 03 UTC
Vent 10 kt del Nord/Nord-Oest

TAF: CYMM 161840Z 1619/1707 34015G25KT P6SM BKN060 BECMG 1701/1703 34010KT RMK FCST BASED ON AUTO OBS. NXT FCST BY 170100Z

Observacions i pronòstics meteorològics de més de 4000 aeroports (METAR i TAF).

Les estacions disponibles són els punts grocs i vermells al mapa.

Posi el ratolí al punt desitjat per veure el nom de l'estació.

Feu clic per veure les observacions i els pronòstics meteorològics.

Per canviar el mapa: feu clic els botons verds amb una creu de color negre per apropar; al botó verd amb un guió per allunyar la imatge; o en les fletxes verdes per a mapes adjacents.


METAR-TAF: